메인 페이지
METAR-TAF:

METAR-TAF

공항 :

Florești, 몰도바

위도: 47-51-45N, 경도: 028-12-45E, 고도: 101m

현재 날씨관측

예보는 1 시간 45분 전, 14:00시(UTC)에 발표되었습니다.
무풍
온도 18°C
습도 52%
기압 1020 hPa
시정 10km 이상
1500m 미만 상공 구름 및 적란운 없음

METAR: LUBM 221400Z 00000KT CAVOK 18/08 Q1020 R25/CLRD65

시각: 18:45 (15:45 UTC)

예보

예보는 3 시간 40분 전, 12:05시(UTC)에 발표되었습니다.
예보 대상 시간: 22일 12시부터 22일 21시까지 (UTC)
여러 방향의 바람 4kt
시정 10km 이상
1500m 미만 상공 구름 및 적란운 없음

TAF: LUBM 221205Z 2212/2221 VRB04KT CAVOK

4,000개 이상의 공항 관측 자료 및 예보 (METAR 및 TAF 보고).

지도상에서 검색 가능한 기상관측소가 노란 점과 빨간 점으로 표시되어 있습니다.

기상관측소 명을 보려면 표시 위로 마우스를 이동하세요.

날씨 관측과 예보를 보려면 클릭하세요.

지도 변경 : 확대하려면 엑스 표시가 있는 녹색 버튼, 축소하려면 빼기 표시가 있는 녹색 버튼, 다음 페이지의 지도를 보려면 녹색 화살표를 클릭하세요.


METAR-TAF: